sensor_id;sensor_type;location;lat;lon;timestamp;P1;durP1;ratioP1;P2;durP2;ratioP2
29570;SDS011;16814;52.118;11.436;2022-12-05T00:00:49;444.98;;;51.63;;
29570;SDS011;16814;52.118;11.436;2022-12-05T00:03:15;216.52;;;49.22;;
29570;SDS011;16814;52.118;11.436;2022-12-05T00:05:41;331.33;;;52.10;;
29570;SDS011;16814;52.118;11.436;2022-12-05T00:08:06;420.02;;;51.45;;
29570;SDS011;16814;52.118;11.436;2022-12-05T00:10:34;436.73;;;52.87;;
29570;SDS011;16814;52.118;11.436;2022-12-05T00:13:01;313.02;;;49.67;;
29570;SDS011;16814;52.118;11.436;2022-12-05T00:15:26;304.75;;;49.05;;
29570;SDS011;16814;52.118;11.436;2022-12-05T00:17:52;298.07;;;48.23;;
29570;SDS011;16814;52.118;11.436;2022-12-05T00:20:17;305.77;;;51.13;;
29570;SDS011;16814;52.118;11.436;2022-12-05T00:22:44;384.83;;;51.20;;
29570;SDS011;16814;52.118;11.436;2022-12-05T00:25:09;271.95;;;49.53;;
29570;SDS011;16814;52.118;11.436;2022-12-05T00:27:35;298.73;;;48.90;;
29570;SDS011;16814;52.118;11.436;2022-12-05T00:30:01;317.33;;;48.17;;
29570;SDS011;16814;52.118;11.436;2022-12-05T00:32:27;330.83;;;48.75;;
29570;SDS011;16814;52.118;11.436;2022-12-05T00:34:53;258.88;;;47.97;;
29570;SDS011;16814;52.118;11.436;2022-12-05T00:37:18;260.90;;;47.30;;
29570;SDS011;16814;52.118;11.436;2022-12-05T00:39:44;234.10;;;45.40;;
29570;SDS011;16814;52.118;11.436;2022-12-05T00:42:11;264.92;;;46.25;;
29570;SDS011;16814;52.118;11.436;2022-12-05T00:44:36;312.10;;;47.78;;
29570;SDS011;16814;52.118;11.436;2022-12-05T00:47:02;246.48;;;46.60;;
29570;SDS011;16814;52.118;11.436;2022-12-05T00:49:27;372.00;;;46.63;;
29570;SDS011;16814;52.118;11.436;2022-12-05T00:51:53;225.07;;;45.80;;
29570;SDS011;16814;52.118;11.436;2022-12-05T00:54:19;314.77;;;46.78;;
29570;SDS011;16814;52.118;11.436;2022-12-05T00:56:44;401.33;;;49.00;;
29570;SDS011;16814;52.118;11.436;2022-12-05T00:59:11;383.70;;;47.95;;
29570;SDS011;16814;52.118;11.436;2022-12-05T01:01:41;392.73;;;50.58;;
29570;SDS011;16814;52.118;11.436;2022-12-05T01:04:12;306.13;;;46.53;;
29570;SDS011;16814;52.118;11.436;2022-12-05T01:06:40;349.65;;;50.10;;
29570;SDS011;16814;52.118;11.436;2022-12-05T01:09:06;310.38;;;47.80;;
29570;SDS011;16814;52.118;11.436;2022-12-05T01:11:32;263.13;;;47.23;;
29570;SDS011;16814;52.118;11.436;2022-12-05T01:13:58;279.23;;;46.10;;
29570;SDS011;16814;52.118;11.436;2022-12-05T01:16:27;269.88;;;44.75;;
29570;SDS011;16814;52.118;11.436;2022-12-05T01:18:59;311.23;;;45.97;;
29570;SDS011;16814;52.118;11.436;2022-12-05T01:21:27;199.55;;;44.25;;
29570;SDS011;16814;52.118;11.436;2022-12-05T01:23:53;212.20;;;42.90;;
29570;SDS011;16814;52.118;11.436;2022-12-05T01:26:21;190.55;;;42.45;;
29570;SDS011;16814;52.118;11.436;2022-12-05T01:28:47;216.82;;;43.47;;
29570;SDS011;16814;52.118;11.436;2022-12-05T01:31:21;218.25;;;41.97;;
29570;SDS011;16814;52.118;11.436;2022-12-05T01:33:48;202.98;;;43.10;;
29570;SDS011;16814;52.118;11.436;2022-12-05T01:36:14;155.63;;;42.33;;
29570;SDS011;16814;52.118;11.436;2022-12-05T01:38:41;219.38;;;43.67;;
29570;SDS011;16814;52.118;11.436;2022-12-05T01:41:10;189.60;;;44.20;;
29570;SDS011;16814;52.118;11.436;2022-12-05T01:46:25;242.95;;;42.78;;
29570;SDS011;16814;52.118;11.436;2022-12-05T01:48:52;222.30;;;41.47;;
29570;SDS011;16814;52.118;11.436;2022-12-05T01:51:22;209.23;;;40.92;;
29570;SDS011;16814;52.118;11.436;2022-12-05T01:53:49;196.48;;;42.42;;
29570;SDS011;16814;52.118;11.436;2022-12-05T01:56:14;216.48;;;41.88;;
29570;SDS011;16814;52.118;11.436;2022-12-05T01:58:41;323.73;;;44.13;;
29570;SDS011;16814;52.118;11.436;2022-12-05T02:01:08;289.65;;;44.72;;
29570;SDS011;16814;52.118;11.436;2022-12-05T02:03:37;367.48;;;45.95;;
29570;SDS011;16814;52.118;11.436;2022-12-05T02:06:04;252.35;;;41.03;;
29570;SDS011;16814;52.118;11.436;2022-12-05T02:08:30;298.48;;;42.92;;
29570;SDS011;16814;52.118;11.436;2022-12-05T02:10:56;290.45;;;44.70;;
29570;SDS011;16814;52.118;11.436;2022-12-05T02:16:30;245.40;;;40.75;;
29570;SDS011;16814;52.118;11.436;2022-12-05T02:20:13;322.50;;;43.67;;
29570;SDS011;16814;52.118;11.436;2022-12-05T02:33:43;239.80;;;42.63;;
29570;SDS011;16814;52.118;11.436;2022-12-05T02:39:02;284.63;;;42.50;;
29570;SDS011;16814;52.118;11.436;2022-12-05T02:41:49;202.05;;;42.45;;
29570;SDS011;16814;52.118;11.436;2022-12-05T02:44:34;221.95;;;40.97;;
29570;SDS011;16814;52.118;11.436;2022-12-05T02:47:04;298.27;;;42.90;;
29570;SDS011;16814;52.118;11.436;2022-12-05T02:49:34;191.45;;;41.20;;
29570;SDS011;16814;52.118;11.436;2022-12-05T02:52:02;277.42;;;40.80;;
29570;SDS011;16814;52.118;11.436;2022-12-05T02:54:35;345.47;;;43.10;;
29570;SDS011;16814;52.118;11.436;2022-12-05T02:57:05;189.30;;;39.80;;
29570;SDS011;16814;52.118;11.436;2022-12-05T02:59:33;269.90;;;41.45;;
29570;SDS011;16814;52.118;11.436;2022-12-05T03:01:58;203.45;;;37.83;;
29570;SDS011;16814;52.118;11.436;2022-12-05T03:04:24;340.03;;;41.53;;
29570;SDS011;16814;52.118;11.436;2022-12-05T03:06:55;273.40;;;42.03;;
29570;SDS011;16814;52.118;11.436;2022-12-05T03:09:34;185.63;;;37.07;;
29570;SDS011;16814;52.118;11.436;2022-12-05T03:14:54;226.65;;;37.45;;
29570;SDS011;16814;52.118;11.436;2022-12-05T03:17:28;177.15;;;36.78;;
29570;SDS011;16814;52.118;11.436;2022-12-05T03:20:05;147.23;;;35.65;;
29570;SDS011;16814;52.118;11.436;2022-12-05T03:22:45;154.30;;;36.20;;
29570;SDS011;16814;52.118;11.436;2022-12-05T03:25:21;135.32;;;34.22;;
29570;SDS011;16814;52.118;11.436;2022-12-05T03:27:51;133.15;;;34.45;;
29570;SDS011;16814;52.118;11.436;2022-12-05T03:30:25;131.40;;;34.63;;
29570;SDS011;16814;52.118;11.436;2022-12-05T03:32:56;117.57;;;32.47;;
29570;SDS011;16814;52.118;11.436;2022-12-05T03:38:19;117.22;;;31.48;;
29570;SDS011;16814;52.118;11.436;2022-12-05T03:41:07;106.57;;;28.90;;
29570;SDS011;16814;52.118;11.436;2022-12-05T03:43:57;103.50;;;29.27;;
29570;SDS011;16814;52.118;11.436;2022-12-05T03:52:06;86.75;;;27.33;;
29570;SDS011;16814;52.118;11.436;2022-12-05T03:54:50;90.93;;;27.00;;
29570;SDS011;16814;52.118;11.436;2022-12-05T03:57:24;90.40;;;26.45;;
29570;SDS011;16814;52.118;11.436;2022-12-05T03:59:56;80.45;;;24.85;;
29570;SDS011;16814;52.118;11.436;2022-12-05T04:02:35;79.57;;;24.85;;
29570;SDS011;16814;52.118;11.436;2022-12-05T04:05:13;81.47;;;25.33;;
29570;SDS011;16814;52.118;11.436;2022-12-05T04:07:57;80.63;;;24.48;;
29570;SDS011;16814;52.118;11.436;2022-12-05T04:10:27;87.07;;;25.23;;
29570;SDS011;16814;52.118;11.436;2022-12-05T04:12:57;79.70;;;25.27;;
29570;SDS011;16814;52.118;11.436;2022-12-05T04:15:41;88.53;;;25.75;;
29570;SDS011;16814;52.118;11.436;2022-12-05T04:18:31;90.50;;;26.13;;
29570;SDS011;16814;52.118;11.436;2022-12-05T04:20:58;94.22;;;27.13;;
29570;SDS011;16814;52.118;11.436;2022-12-05T04:23:46;87.95;;;26.33;;
29570;SDS011;16814;52.118;11.436;2022-12-05T04:26:31;86.90;;;25.90;;
29570;SDS011;16814;52.118;11.436;2022-12-05T04:29:09;90.75;;;25.65;;
29570;SDS011;16814;52.118;11.436;2022-12-05T04:31:41;84.50;;;25.30;;
29570;SDS011;16814;52.118;11.436;2022-12-05T04:34:12;79.32;;;26.20;;
29570;SDS011;16814;52.118;11.436;2022-12-05T04:36:43;81.97;;;25.35;;
29570;SDS011;16814;52.118;11.436;2022-12-05T04:39:19;95.82;;;25.95;;
29570;SDS011;16814;52.118;11.436;2022-12-05T04:41:50;79.53;;;24.23;;
29570;SDS011;16814;52.118;11.436;2022-12-05T04:44:53;79.63;;;25.08;;
29570;SDS011;16814;52.118;11.436;2022-12-05T04:47:23;76.00;;;25.40;;
29570;SDS011;16814;52.118;11.436;2022-12-05T04:49:51;82.60;;;25.83;;
29570;SDS011;16814;52.118;11.436;2022-12-05T04:52:17;93.70;;;26.20;;
29570;SDS011;16814;52.118;11.436;2022-12-05T04:54:52;80.95;;;24.92;;
29570;SDS011;16814;52.118;11.436;2022-12-05T04:57:30;87.45;;;25.17;;
29570;SDS011;16814;52.118;11.436;2022-12-05T05:00:01;76.70;;;24.63;;
29570;SDS011;16814;52.118;11.436;2022-12-05T05:02:36;84.63;;;25.35;;
29570;SDS011;16814;52.118;11.436;2022-12-05T05:05:08;83.85;;;26.13;;
29570;SDS011;16814;52.118;11.436;2022-12-05T05:07:44;93.13;;;26.38;;
29570;SDS011;16814;52.118;11.436;2022-12-05T05:10:11;89.32;;;25.58;;
29570;SDS011;16814;52.118;11.436;2022-12-05T05:12:40;82.70;;;25.50;;
29570;SDS011;16814;52.118;11.436;2022-12-05T05:15:06;85.82;;;27.13;;
29570;SDS011;16814;52.118;11.436;2022-12-05T05:17:32;87.65;;;27.20;;
29570;SDS011;16814;52.118;11.436;2022-12-05T05:19:57;85.97;;;26.47;;
29570;SDS011;16814;52.118;11.436;2022-12-05T05:22:43;78.03;;;24.20;;
29570;SDS011;16814;52.118;11.436;2022-12-05T05:25:11;75.55;;;24.73;;
29570;SDS011;16814;52.118;11.436;2022-12-05T05:27:37;78.90;;;23.97;;
29570;SDS011;16814;52.118;11.436;2022-12-05T05:30:02;71.80;;;23.35;;
29570;SDS011;16814;52.118;11.436;2022-12-05T05:32:30;73.97;;;23.77;;
29570;SDS011;16814;52.118;11.436;2022-12-05T05:34:56;73.35;;;24.42;;
29570;SDS011;16814;52.118;11.436;2022-12-05T05:37:22;72.67;;;24.03;;
29570;SDS011;16814;52.118;11.436;2022-12-05T05:39:47;69.28;;;23.70;;
29570;SDS011;16814;52.118;11.436;2022-12-05T05:42:13;65.70;;;22.97;;
29570;SDS011;16814;52.118;11.436;2022-12-05T05:44:38;67.45;;;22.60;;
29570;SDS011;16814;52.118;11.436;2022-12-05T05:47:04;61.63;;;22.53;;
29570;SDS011;16814;52.118;11.436;2022-12-05T05:49:30;66.95;;;22.48;;
29570;SDS011;16814;52.118;11.436;2022-12-05T05:51:55;71.20;;;22.93;;
29570;SDS011;16814;52.118;11.436;2022-12-05T05:54:21;66.85;;;22.83;;
29570;SDS011;16814;52.118;11.436;2022-12-05T05:56:47;67.50;;;22.43;;
29570;SDS011;16814;52.118;11.436;2022-12-05T05:59:13;78.23;;;22.60;;
29570;SDS011;16814;52.118;11.436;2022-12-05T06:01:38;65.07;;;21.77;;
29570;SDS011;16814;52.118;11.436;2022-12-05T06:04:04;76.70;;;22.80;;
29570;SDS011;16814;52.118;11.436;2022-12-05T06:06:30;59.08;;;21.17;;
29570;SDS011;16814;52.118;11.436;2022-12-05T06:08:55;64.43;;;22.67;;
29570;SDS011;16814;52.118;11.436;2022-12-05T06:11:24;68.88;;;22.48;;
29570;SDS011;16814;52.118;11.436;2022-12-05T06:13:54;77.50;;;23.67;;
29570;SDS011;16814;52.118;11.436;2022-12-05T06:16:21;73.32;;;23.50;;
29570;SDS011;16814;52.118;11.436;2022-12-05T06:18:47;74.50;;;23.17;;
29570;SDS011;16814;52.118;11.436;2022-12-05T06:21:13;72.73;;;24.53;;
29570;SDS011;16814;52.118;11.436;2022-12-05T06:23:39;73.97;;;24.60;;
29570;SDS011;16814;52.118;11.436;2022-12-05T06:26:05;72.28;;;23.90;;
29570;SDS011;16814;52.118;11.436;2022-12-05T06:28:35;79.03;;;24.42;;
29570;SDS011;16814;52.118;11.436;2022-12-05T06:31:07;76.80;;;24.00;;
29570;SDS011;16814;52.118;11.436;2022-12-05T06:33:38;59.70;;;22.30;;
29570;SDS011;16814;52.118;11.436;2022-12-05T06:36:04;71.60;;;24.07;;
29570;SDS011;16814;52.118;11.436;2022-12-05T06:38:34;69.38;;;23.98;;
29570;SDS011;16814;52.118;11.436;2022-12-05T06:41:03;65.68;;;22.50;;
29570;SDS011;16814;52.118;11.436;2022-12-05T06:43:32;65.95;;;22.45;;
29570;SDS011;16814;52.118;11.436;2022-12-05T06:45:58;65.97;;;22.35;;
29570;SDS011;16814;52.118;11.436;2022-12-05T06:48:24;65.38;;;22.55;;
29570;SDS011;16814;52.118;11.436;2022-12-05T06:50:50;73.57;;;22.63;;
29570;SDS011;16814;52.118;11.436;2022-12-05T06:53:17;71.97;;;23.38;;
29570;SDS011;16814;52.118;11.436;2022-12-05T06:55:43;64.13;;;22.08;;
29570;SDS011;16814;52.118;11.436;2022-12-05T06:58:09;61.03;;;20.92;;
29570;SDS011;16814;52.118;11.436;2022-12-05T07:00:35;68.65;;;22.45;;
29570;SDS011;16814;52.118;11.436;2022-12-05T07:03:20;71.18;;;22.35;;
29570;SDS011;16814;52.118;11.436;2022-12-05T07:05:45;72.83;;;22.67;;
29570;SDS011;16814;52.118;11.436;2022-12-05T07:08:11;76.45;;;23.42;;
29570;SDS011;16814;52.118;11.436;2022-12-05T07:10:37;67.17;;;22.20;;
29570;SDS011;16814;52.118;11.436;2022-12-05T07:13:02;72.10;;;22.00;;
29570;SDS011;16814;52.118;11.436;2022-12-05T07:15:28;72.47;;;23.03;;
29570;SDS011;16814;52.118;11.436;2022-12-05T07:17:53;70.67;;;22.50;;
29570;SDS011;16814;52.118;11.436;2022-12-05T07:20:19;67.13;;;22.33;;
29570;SDS011;16814;52.118;11.436;2022-12-05T07:22:44;75.10;;;22.90;;
29570;SDS011;16814;52.118;11.436;2022-12-05T07:25:10;69.63;;;23.60;;
29570;SDS011;16814;52.118;11.436;2022-12-05T07:27:35;77.80;;;25.47;;
29570;SDS011;16814;52.118;11.436;2022-12-05T07:30:01;68.88;;;23.98;;
29570;SDS011;16814;52.118;11.436;2022-12-05T07:32:30;61.78;;;22.15;;
29570;SDS011;16814;52.118;11.436;2022-12-05T07:34:57;67.03;;;22.57;;
29570;SDS011;16814;52.118;11.436;2022-12-05T07:37:22;75.33;;;21.33;;
29570;SDS011;16814;52.118;11.436;2022-12-05T07:39:48;64.60;;;22.38;;
29570;SDS011;16814;52.118;11.436;2022-12-05T07:42:14;73.50;;;21.85;;
29570;SDS011;16814;52.118;11.436;2022-12-05T07:44:41;77.97;;;21.75;;
29570;SDS011;16814;52.118;11.436;2022-12-05T07:47:06;72.13;;;22.55;;
29570;SDS011;16814;52.118;11.436;2022-12-05T07:49:35;65.13;;;21.80;;
29570;SDS011;16814;52.118;11.436;2022-12-05T07:52:01;70.22;;;22.15;;
29570;SDS011;16814;52.118;11.436;2022-12-05T07:54:27;80.75;;;23.55;;
29570;SDS011;16814;52.118;11.436;2022-12-05T07:56:52;92.67;;;23.40;;
29570;SDS011;16814;52.118;11.436;2022-12-05T07:59:18;57.60;;;20.63;;
29570;SDS011;16814;52.118;11.436;2022-12-05T08:01:43;116.10;;;24.67;;
29570;SDS011;16814;52.118;11.436;2022-12-05T08:04:12;108.63;;;24.20;;
29570;SDS011;16814;52.118;11.436;2022-12-05T08:06:38;99.13;;;23.73;;
29570;SDS011;16814;52.118;11.436;2022-12-05T08:09:05;65.55;;;22.20;;
29570;SDS011;16814;52.118;11.436;2022-12-05T08:11:31;75.55;;;23.48;;
29570;SDS011;16814;52.118;11.436;2022-12-05T08:14:00;61.08;;;22.00;;
29570;SDS011;16814;52.118;11.436;2022-12-05T08:16:28;86.17;;;22.67;;
29570;SDS011;16814;52.118;11.436;2022-12-05T08:18:55;59.28;;;21.35;;
29570;SDS011;16814;52.118;11.436;2022-12-05T08:21:22;97.40;;;21.30;;
29570;SDS011;16814;52.118;11.436;2022-12-05T08:23:49;99.25;;;22.45;;
29570;SDS011;16814;52.118;11.436;2022-12-05T08:26:16;86.10;;;22.40;;
29570;SDS011;16814;52.118;11.436;2022-12-05T08:28:45;64.95;;;20.10;;
29570;SDS011;16814;52.118;11.436;2022-12-05T08:31:15;86.00;;;21.42;;
29570;SDS011;16814;52.118;11.436;2022-12-05T08:33:42;96.55;;;22.45;;
29570;SDS011;16814;52.118;11.436;2022-12-05T08:36:10;75.30;;;21.20;;
29570;SDS011;16814;52.118;11.436;2022-12-05T08:38:37;147.35;;;23.27;;
29570;SDS011;16814;52.118;11.436;2022-12-05T08:41:04;62.33;;;20.45;;
29570;SDS011;16814;52.118;11.436;2022-12-05T08:43:31;86.07;;;22.75;;
29570;SDS011;16814;52.118;11.436;2022-12-05T08:45:56;96.30;;;21.40;;
29570;SDS011;16814;52.118;11.436;2022-12-05T08:48:23;62.83;;;20.95;;
29570;SDS011;16814;52.118;11.436;2022-12-05T08:50:49;113.32;;;23.35;;
29570;SDS011;16814;52.118;11.436;2022-12-05T08:53:15;109.73;;;21.17;;
29570;SDS011;16814;52.118;11.436;2022-12-05T08:55:41;108.47;;;21.25;;
29570;SDS011;16814;52.118;11.436;2022-12-05T08:58:06;101.83;;;20.73;;
29570;SDS011;16814;52.118;11.436;2022-12-05T09:00:34;86.18;;;21.92;;
29570;SDS011;16814;52.118;11.436;2022-12-05T09:03:00;67.10;;;19.85;;
29570;SDS011;16814;52.118;11.436;2022-12-05T09:05:27;72.93;;;20.83;;
29570;SDS011;16814;52.118;11.436;2022-12-05T09:07:55;72.40;;;21.95;;
29570;SDS011;16814;52.118;11.436;2022-12-05T09:10:23;52.22;;;20.20;;
29570;SDS011;16814;52.118;11.436;2022-12-05T09:12:49;75.45;;;20.25;;
29570;SDS011;16814;52.118;11.436;2022-12-05T09:15:16;107.18;;;20.88;;
29570;SDS011;16814;52.118;11.436;2022-12-05T09:17:42;112.68;;;20.30;;
29570;SDS011;16814;52.118;11.436;2022-12-05T09:20:08;109.33;;;21.60;;
29570;SDS011;16814;52.118;11.436;2022-12-05T09:22:37;101.80;;;20.88;;
29570;SDS011;16814;52.118;11.436;2022-12-05T09:25:02;48.38;;;18.77;;
29570;SDS011;16814;52.118;11.436;2022-12-05T09:27:28;77.53;;;22.07;;
29570;SDS011;16814;52.118;11.436;2022-12-05T09:29:54;48.40;;;20.90;;
29570;SDS011;16814;52.118;11.436;2022-12-05T09:32:19;105.20;;;27.30;;
29570;SDS011;16814;52.118;11.436;2022-12-05T09:34:45;57.00;;;23.07;;
29570;SDS011;16814;52.118;11.436;2022-12-05T09:37:10;55.10;;;22.27;;
29570;SDS011;16814;52.118;11.436;2022-12-05T09:39:36;46.83;;;19.80;;
29570;SDS011;16814;52.118;11.436;2022-12-05T09:42:14;49.53;;;20.85;;
29570;SDS011;16814;52.118;11.436;2022-12-05T09:47:51;62.65;;;20.02;;
29570;SDS011;16814;52.118;11.436;2022-12-05T09:50:42;46.58;;;19.63;;
29570;SDS011;16814;52.118;11.436;2022-12-05T09:53:27;51.15;;;20.00;;
29570;SDS011;16814;52.118;11.436;2022-12-05T09:56:10;65.68;;;21.05;;
29570;SDS011;16814;52.118;11.436;2022-12-05T10:01:15;79.50;;;23.83;;
29570;SDS011;16814;52.118;11.436;2022-12-05T10:06:57;87.57;;;27.42;;
29570;SDS011;16814;52.118;11.436;2022-12-05T10:20:52;58.05;;;21.45;;
29570;SDS011;16814;52.118;11.436;2022-12-05T10:23:23;58.95;;;22.42;;
29570;SDS011;16814;52.118;11.436;2022-12-05T10:26:06;86.93;;;21.67;;
29570;SDS011;16814;52.118;11.436;2022-12-05T10:28:40;51.65;;;20.67;;
29570;SDS011;16814;52.118;11.436;2022-12-05T10:31:14;54.13;;;20.23;;
29570;SDS011;16814;52.118;11.436;2022-12-05T10:33:48;40.20;;;19.13;;
29570;SDS011;16814;52.118;11.436;2022-12-05T10:36:19;42.80;;;19.77;;
29570;SDS011;16814;52.118;11.436;2022-12-05T10:38:45;52.87;;;21.53;;
29570;SDS011;16814;52.118;11.436;2022-12-05T10:41:11;68.32;;;21.55;;
29570;SDS011;16814;52.118;11.436;2022-12-05T10:43:39;87.53;;;20.67;;
29570;SDS011;16814;52.118;11.436;2022-12-05T10:46:07;49.95;;;19.95;;
29570;SDS011;16814;52.118;11.436;2022-12-05T10:48:37;51.37;;;20.20;;
29570;SDS011;16814;52.118;11.436;2022-12-05T10:51:15;66.53;;;21.03;;
29570;SDS011;16814;52.118;11.436;2022-12-05T10:53:44;40.93;;;19.57;;
29570;SDS011;16814;52.118;11.436;2022-12-05T10:59:17;48.92;;;19.52;;
29570;SDS011;16814;52.118;11.436;2022-12-05T11:01:50;40.15;;;18.08;;
29570;SDS011;16814;52.118;11.436;2022-12-05T11:04:19;35.03;;;17.60;;
29570;SDS011;16814;52.118;11.436;2022-12-05T11:07:01;34.90;;;15.97;;
29570;SDS011;16814;52.118;11.436;2022-12-05T11:09:33;34.70;;;17.13;;
29570;SDS011;16814;52.118;11.436;2022-12-05T11:14:56;37.27;;;15.93;;
29570;SDS011;16814;52.118;11.436;2022-12-05T11:20:00;33.47;;;14.98;;
29570;SDS011;16814;52.118;11.436;2022-12-05T11:22:44;26.40;;;13.55;;
29570;SDS011;16814;52.118;11.436;2022-12-05T11:27:52;40.33;;;15.17;;
29570;SDS011;16814;52.118;11.436;2022-12-05T11:30:23;33.38;;;14.40;;
29570;SDS011;16814;52.118;11.436;2022-12-05T11:33:09;30.33;;;15.02;;
29570;SDS011;16814;52.118;11.436;2022-12-05T11:35:46;34.05;;;15.85;;
29570;SDS011;16814;52.118;11.436;2022-12-05T11:38:13;42.33;;;15.63;;
29570;SDS011;16814;52.118;11.436;2022-12-05T11:54:55;27.90;;;14.43;;
29570;SDS011;16814;52.118;11.436;2022-12-05T11:57:41;37.92;;;15.00;;
29570;SDS011;16814;52.118;11.436;2022-12-05T12:00:41;33.00;;;15.85;;
29570;SDS011;16814;52.118;11.436;2022-12-05T12:08:54;32.90;;;15.70;;
29570;SDS011;16814;52.118;11.436;2022-12-05T12:11:50;34.97;;;15.93;;
29570;SDS011;16814;52.118;11.436;2022-12-05T12:20:11;48.65;;;17.95;;
29570;SDS011;16814;52.118;11.436;2022-12-05T12:23:12;30.25;;;15.68;;
29570;SDS011;16814;52.118;11.436;2022-12-05T12:34:34;31.17;;;15.07;;
29570;SDS011;16814;52.118;11.436;2022-12-05T12:36:48;30.88;;;13.55;;
29570;SDS011;16814;52.118;11.436;2022-12-05T12:39:39;32.10;;;14.02;;
29570;SDS011;16814;52.118;11.436;2022-12-05T12:50:55;56.00;;;15.45;;
29570;SDS011;16814;52.118;11.436;2022-12-05T13:02:20;28.00;;;13.80;;
29570;SDS011;16814;52.118;11.436;2022-12-05T13:10:57;28.33;;;13.48;;
29570;SDS011;16814;52.118;11.436;2022-12-05T13:13:33;29.13;;;13.82;;
29570;SDS011;16814;52.118;11.436;2022-12-05T13:16:07;29.63;;;14.15;;
29570;SDS011;16814;52.118;11.436;2022-12-05T13:18:33;33.67;;;15.57;;
29570;SDS011;16814;52.118;11.436;2022-12-05T13:21:01;33.90;;;15.70;;
29570;SDS011;16814;52.118;11.436;2022-12-05T13:23:31;33.42;;;14.52;;
29570;SDS011;16814;52.118;11.436;2022-12-05T13:25:59;31.50;;;14.43;;
29570;SDS011;16814;52.118;11.436;2022-12-05T13:31:08;32.70;;;14.85;;
29570;SDS011;16814;52.118;11.436;2022-12-05T13:33:45;41.03;;;16.00;;
29570;SDS011;16814;52.118;11.436;2022-12-05T13:36:14;30.60;;;14.68;;
29570;SDS011;16814;52.118;11.436;2022-12-05T13:39:01;31.00;;;14.02;;
29570;SDS011;16814;52.118;11.436;2022-12-05T13:41:50;33.75;;;13.45;;
29570;SDS011;16814;52.118;11.436;2022-12-05T13:44:43;27.70;;;12.35;;
29570;SDS011;16814;52.118;11.436;2022-12-05T13:50:24;27.00;;;12.60;;
29570;SDS011;16814;52.118;11.436;2022-12-05T13:53:20;23.27;;;11.52;;
29570;SDS011;16814;52.118;11.436;2022-12-05T13:56:01;22.17;;;11.30;;
29570;SDS011;16814;52.118;11.436;2022-12-05T14:09:02;28.92;;;12.85;;
29570;SDS011;16814;52.118;11.436;2022-12-05T14:15:22;26.17;;;12.53;;
29570;SDS011;16814;52.118;11.436;2022-12-05T14:17:35;27.10;;;12.80;;
29570;SDS011;16814;52.118;11.436;2022-12-05T14:23:05;27.15;;;13.02;;
29570;SDS011;16814;52.118;11.436;2022-12-05T14:25:54;27.25;;;12.65;;
29570;SDS011;16814;52.118;11.436;2022-12-05T14:32:10;24.55;;;11.60;;
29570;SDS011;16814;52.118;11.436;2022-12-05T14:34:56;27.13;;;12.30;;
29570;SDS011;16814;52.118;11.436;2022-12-05T14:37:35;24.80;;;11.25;;
29570;SDS011;16814;52.118;11.436;2022-12-05T14:40:17;32.72;;;12.07;;
29570;SDS011;16814;52.118;11.436;2022-12-05T14:42:52;20.43;;;10.03;;
29570;SDS011;16814;52.118;11.436;2022-12-05T14:45:31;24.77;;;10.65;;
29570;SDS011;16814;52.118;11.436;2022-12-05T14:48:25;20.17;;;10.68;;
29570;SDS011;16814;52.118;11.436;2022-12-05T14:50:56;23.00;;;11.27;;
29570;SDS011;16814;52.118;11.436;2022-12-05T14:53:30;23.80;;;11.45;;
29570;SDS011;16814;52.118;11.436;2022-12-05T14:56:12;28.63;;;11.90;;
29570;SDS011;16814;52.118;11.436;2022-12-05T15:01:16;21.60;;;10.30;;
29570;SDS011;16814;52.118;11.436;2022-12-05T15:03:54;22.00;;;10.40;;
29570;SDS011;16814;52.118;11.436;2022-12-05T15:06:26;21.60;;;10.77;;
29570;SDS011;16814;52.118;11.436;2022-12-05T15:08:54;21.98;;;11.05;;
29570;SDS011;16814;52.118;11.436;2022-12-05T15:11:22;22.20;;;11.33;;
29570;SDS011;16814;52.118;11.436;2022-12-05T15:16:50;28.00;;;13.20;;
29570;SDS011;16814;52.118;11.436;2022-12-05T15:19:20;29.27;;;13.77;;
29570;SDS011;16814;52.118;11.436;2022-12-05T15:21:54;32.88;;;15.10;;
29570;SDS011;16814;52.118;11.436;2022-12-05T15:24:22;34.92;;;15.90;;
29570;SDS011;16814;52.118;11.436;2022-12-05T15:26:51;32.85;;;15.70;;
29570;SDS011;16814;52.118;11.436;2022-12-05T15:31:56;26.77;;;13.33;;
29570;SDS011;16814;52.118;11.436;2022-12-05T15:34:41;27.45;;;13.13;;
29570;SDS011;16814;52.118;11.436;2022-12-05T15:39:48;24.48;;;12.35;;
29570;SDS011;16814;52.118;11.436;2022-12-05T15:42:26;23.30;;;11.75;;
29570;SDS011;16814;52.118;11.436;2022-12-05T15:45:08;25.35;;;12.70;;
29570;SDS011;16814;52.118;11.436;2022-12-05T15:47:37;22.50;;;11.68;;
29570;SDS011;16814;52.118;11.436;2022-12-05T15:50:14;20.98;;;11.65;;
29570;SDS011;16814;52.118;11.436;2022-12-05T15:55:19;21.10;;;11.32;;
29570;SDS011;16814;52.118;11.436;2022-12-05T15:58:19;21.35;;;11.18;;
29570;SDS011;16814;52.118;11.436;2022-12-05T16:00:52;23.90;;;10.95;;
29570;SDS011;16814;52.118;11.436;2022-12-05T16:03:23;23.25;;;11.15;;
29570;SDS011;16814;52.118;11.436;2022-12-05T16:06:03;21.83;;;10.82;;
29570;SDS011;16814;52.118;11.436;2022-12-05T16:08:42;19.45;;;10.90;;
29570;SDS011;16814;52.118;11.436;2022-12-05T16:11:09;20.10;;;10.55;;
29570;SDS011;16814;52.118;11.436;2022-12-05T16:13:40;21.77;;;11.73;;
29570;SDS011;16814;52.118;11.436;2022-12-05T16:16:07;21.02;;;10.95;;
29570;SDS011;16814;52.118;11.436;2022-12-05T16:18:38;26.23;;;13.05;;
29570;SDS011;16814;52.118;11.436;2022-12-05T16:21:26;26.10;;;13.07;;
29570;SDS011;16814;52.118;11.436;2022-12-05T16:26:42;27.20;;;13.25;;
29570;SDS011;16814;52.118;11.436;2022-12-05T16:29:25;32.43;;;14.57;;
29570;SDS011;16814;52.118;11.436;2022-12-05T16:32:02;28.17;;;13.10;;
29570;SDS011;16814;52.118;11.436;2022-12-05T16:34:32;26.63;;;13.43;;
29570;SDS011;16814;52.118;11.436;2022-12-05T16:36:58;29.67;;;14.07;;
29570;SDS011;16814;52.118;11.436;2022-12-05T16:39:24;29.73;;;14.77;;
29570;SDS011;16814;52.118;11.436;2022-12-05T16:41:52;27.33;;;14.75;;
29570;SDS011;16814;52.118;11.436;2022-12-05T16:47:25;28.07;;;13.90;;
29570;SDS011;16814;52.118;11.436;2022-12-05T16:52:49;31.30;;;13.93;;
29570;SDS011;16814;52.118;11.436;2022-12-05T16:55:15;34.78;;;14.77;;
29570;SDS011;16814;52.118;11.436;2022-12-05T16:57:41;30.05;;;14.25;;
29570;SDS011;16814;52.118;11.436;2022-12-05T17:00:13;33.65;;;16.05;;
29570;SDS011;16814;52.118;11.436;2022-12-05T17:02:39;29.33;;;15.07;;
29570;SDS011;16814;52.118;11.436;2022-12-05T17:05:10;32.50;;;16.07;;
29570;SDS011;16814;52.118;11.436;2022-12-05T17:07:39;37.42;;;17.48;;
29570;SDS011;16814;52.118;11.436;2022-12-05T17:10:05;34.47;;;15.68;;
29570;SDS011;16814;52.118;11.436;2022-12-05T17:12:31;28.80;;;14.75;;
29570;SDS011;16814;52.118;11.436;2022-12-05T17:14:57;28.42;;;13.98;;
29570;SDS011;16814;52.118;11.436;2022-12-05T17:17:23;26.60;;;13.30;;